Terminal Aerodrome Forecast
Issued by NWS

Home | Current Version | Previous Version | Text Only | Print | Product List | Glossary On
Versions: 1 2 3 4 5 6 7 8 9 10 11 12 13 14 15 16
000
FTUS43 KUNR 242331
TAFGCC
TAF
KGCC 242331Z 2500/2524 04007KT P6SM OVC050
      TEMPO 2500/2504 -SHRA BKN025
     FM250400 06009KT P6SM -RA OVC020
     FM250900 06012KT 3/4SM -SN OVC003
     FM251700 03016G24KT 2SM -SN OVC003=

USA.gov is the U.S. government's official web portal to all federal, state and local government web resources and services.